sensor_id;sensor_type;location;lat;lon;timestamp;P1;durP1;ratioP1;P2;durP2;ratioP2
14484;SDS011;7328;50.812;4.422;2022-07-24T00:00:56;16.03;;;11.07;;
14484;SDS011;7328;50.812;4.422;2022-07-24T00:03:22;11.80;;;10.73;;
14484;SDS011;7328;50.812;4.422;2022-07-24T00:05:48;11.70;;;10.53;;
14484;SDS011;7328;50.812;4.422;2022-07-24T00:08:14;13.87;;;11.47;;
14484;SDS011;7328;50.812;4.422;2022-07-24T00:10:40;13.00;;;11.63;;
14484;SDS011;7328;50.812;4.422;2022-07-24T00:13:06;12.50;;;11.33;;
14484;SDS011;7328;50.812;4.422;2022-07-24T00:15:31;11.33;;;10.43;;
14484;SDS011;7328;50.812;4.422;2022-07-24T00:17:57;11.50;;;10.60;;
14484;SDS011;7328;50.812;4.422;2022-07-24T00:20:23;13.50;;;10.13;;
14484;SDS011;7328;50.812;4.422;2022-07-24T00:22:49;10.93;;;9.93;;
14484;SDS011;7328;50.812;4.422;2022-07-24T00:25:15;12.57;;;11.33;;
14484;SDS011;7328;50.812;4.422;2022-07-24T00:27:40;13.00;;;11.80;;
14484;SDS011;7328;50.812;4.422;2022-07-24T00:30:06;12.50;;;11.33;;
14484;SDS011;7328;50.812;4.422;2022-07-24T00:32:33;14.80;;;12.83;;
14484;SDS011;7328;50.812;4.422;2022-07-24T00:34:58;12.47;;;11.50;;
14484;SDS011;7328;50.812;4.422;2022-07-24T00:37:24;13.00;;;11.80;;
14484;SDS011;7328;50.812;4.422;2022-07-24T00:39:50;14.10;;;12.53;;
14484;SDS011;7328;50.812;4.422;2022-07-24T00:42:16;14.87;;;13.07;;
14484;SDS011;7328;50.812;4.422;2022-07-24T00:44:41;12.97;;;11.77;;
14484;SDS011;7328;50.812;4.422;2022-07-24T00:47:07;31.27;;;24.00;;
14484;SDS011;7328;50.812;4.422;2022-07-24T00:49:33;27.83;;;24.90;;
14484;SDS011;7328;50.812;4.422;2022-07-24T00:51:59;27.63;;;24.83;;
14484;SDS011;7328;50.812;4.422;2022-07-24T00:54:25;28.83;;;26.13;;
14484;SDS011;7328;50.812;4.422;2022-07-24T00:56:52;27.53;;;24.87;;
14484;SDS011;7328;50.812;4.422;2022-07-24T00:59:19;28.20;;;25.00;;
14484;SDS011;7328;50.812;4.422;2022-07-24T01:01:45;27.63;;;24.80;;
14484;SDS011;7328;50.812;4.422;2022-07-24T01:04:12;27.80;;;25.23;;
14484;SDS011;7328;50.812;4.422;2022-07-24T01:06:42;20.50;;;18.53;;
14484;SDS011;7328;50.812;4.422;2022-07-24T01:09:08;18.33;;;16.50;;
14484;SDS011;7328;50.812;4.422;2022-07-24T01:11:35;20.93;;;15.93;;
14484;SDS011;7328;50.812;4.422;2022-07-24T01:14:02;21.63;;;19.30;;
14484;SDS011;7328;50.812;4.422;2022-07-24T01:16:27;21.33;;;19.03;;
14484;SDS011;7328;50.812;4.422;2022-07-24T01:18:53;28.13;;;25.27;;
14484;SDS011;7328;50.812;4.422;2022-07-24T01:21:19;28.87;;;25.87;;
14484;SDS011;7328;50.812;4.422;2022-07-24T01:23:45;29.80;;;26.83;;
14484;SDS011;7328;50.812;4.422;2022-07-24T01:26:10;26.80;;;24.13;;
14484;SDS011;7328;50.812;4.422;2022-07-24T01:28:36;30.50;;;27.33;;
14484;SDS011;7328;50.812;4.422;2022-07-24T01:31:02;28.63;;;25.77;;
14484;SDS011;7328;50.812;4.422;2022-07-24T01:33:28;30.10;;;27.03;;
14484;SDS011;7328;50.812;4.422;2022-07-24T01:35:54;30.17;;;25.20;;
14484;SDS011;7328;50.812;4.422;2022-07-24T01:38:20;27.23;;;24.83;;
14484;SDS011;7328;50.812;4.422;2022-07-24T01:40:46;28.77;;;25.80;;
14484;SDS011;7328;50.812;4.422;2022-07-24T01:43:11;23.80;;;21.43;;
14484;SDS011;7328;50.812;4.422;2022-07-24T01:45:37;21.13;;;19.20;;
14484;SDS011;7328;50.812;4.422;2022-07-24T01:48:03;20.50;;;18.30;;
14484;SDS011;7328;50.812;4.422;2022-07-24T01:50:30;21.33;;;19.00;;
14484;SDS011;7328;50.812;4.422;2022-07-24T01:52:56;21.60;;;19.60;;
14484;SDS011;7328;50.812;4.422;2022-07-24T01:55:22;21.37;;;18.93;;
14484;SDS011;7328;50.812;4.422;2022-07-24T01:57:48;23.43;;;20.73;;
14484;SDS011;7328;50.812;4.422;2022-07-24T02:00:15;20.73;;;18.93;;
14484;SDS011;7328;50.812;4.422;2022-07-24T02:02:42;23.20;;;20.73;;
14484;SDS011;7328;50.812;4.422;2022-07-24T02:05:10;21.70;;;19.63;;
14484;SDS011;7328;50.812;4.422;2022-07-24T02:07:38;24.17;;;20.70;;
14484;SDS011;7328;50.812;4.422;2022-07-24T02:10:04;22.80;;;20.70;;
14484;SDS011;7328;50.812;4.422;2022-07-24T02:12:30;23.90;;;20.27;;
14484;SDS011;7328;50.812;4.422;2022-07-24T02:14:56;23.87;;;21.57;;
14484;SDS011;7328;50.812;4.422;2022-07-24T02:17:22;21.73;;;19.60;;
14484;SDS011;7328;50.812;4.422;2022-07-24T02:19:48;24.23;;;21.77;;
14484;SDS011;7328;50.812;4.422;2022-07-24T02:22:13;26.03;;;21.10;;
14484;SDS011;7328;50.812;4.422;2022-07-24T02:24:39;23.07;;;20.73;;
14484;SDS011;7328;50.812;4.422;2022-07-24T02:27:05;24.03;;;21.67;;
14484;SDS011;7328;50.812;4.422;2022-07-24T02:29:31;23.90;;;21.60;;
14484;SDS011;7328;50.812;4.422;2022-07-24T02:31:56;25.17;;;22.47;;
14484;SDS011;7328;50.812;4.422;2022-07-24T02:34:22;22.93;;;20.87;;
14484;SDS011;7328;50.812;4.422;2022-07-24T02:36:48;25.00;;;22.50;;
14484;SDS011;7328;50.812;4.422;2022-07-24T02:39:14;21.40;;;19.67;;
14484;SDS011;7328;50.812;4.422;2022-07-24T02:41:40;25.30;;;22.60;;
14484;SDS011;7328;50.812;4.422;2022-07-24T02:44:05;24.40;;;21.87;;
14484;SDS011;7328;50.812;4.422;2022-07-24T02:46:31;22.40;;;20.00;;
14484;SDS011;7328;50.812;4.422;2022-07-24T02:48:57;30.70;;;23.13;;
14484;SDS011;7328;50.812;4.422;2022-07-24T02:51:23;22.87;;;20.50;;
14484;SDS011;7328;50.812;4.422;2022-07-24T02:53:49;23.70;;;19.47;;
14484;SDS011;7328;50.812;4.422;2022-07-24T02:56:14;22.90;;;20.73;;
14484;SDS011;7328;50.812;4.422;2022-07-24T02:58:40;25.03;;;22.37;;
14484;SDS011;7328;50.812;4.422;2022-07-24T03:01:06;23.03;;;20.93;;
14484;SDS011;7328;50.812;4.422;2022-07-24T03:03:31;23.47;;;20.67;;
14484;SDS011;7328;50.812;4.422;2022-07-24T03:05:57;22.27;;;19.93;;
14484;SDS011;7328;50.812;4.422;2022-07-24T03:08:23;22.23;;;20.13;;
14484;SDS011;7328;50.812;4.422;2022-07-24T03:10:49;22.00;;;19.77;;
14484;SDS011;7328;50.812;4.422;2022-07-24T03:13:14;27.87;;;22.17;;
14484;SDS011;7328;50.812;4.422;2022-07-24T03:15:40;22.70;;;20.23;;
14484;SDS011;7328;50.812;4.422;2022-07-24T03:18:06;27.90;;;21.07;;
14484;SDS011;7328;50.812;4.422;2022-07-24T03:20:33;20.73;;;18.77;;
14484;SDS011;7328;50.812;4.422;2022-07-24T03:22:59;21.07;;;19.07;;
14484;SDS011;7328;50.812;4.422;2022-07-24T03:25:25;18.67;;;17.03;;
14484;SDS011;7328;50.812;4.422;2022-07-24T03:27:51;20.97;;;16.90;;
14484;SDS011;7328;50.812;4.422;2022-07-24T03:30:17;17.67;;;16.03;;
14484;SDS011;7328;50.812;4.422;2022-07-24T03:32:44;20.67;;;18.43;;
14484;SDS011;7328;50.812;4.422;2022-07-24T03:35:10;19.70;;;17.63;;
14484;SDS011;7328;50.812;4.422;2022-07-24T03:37:36;19.90;;;17.83;;
14484;SDS011;7328;50.812;4.422;2022-07-24T03:40:02;19.27;;;17.47;;
14484;SDS011;7328;50.812;4.422;2022-07-24T03:42:28;18.43;;;16.37;;
14484;SDS011;7328;50.812;4.422;2022-07-24T03:44:55;18.20;;;16.47;;
14484;SDS011;7328;50.812;4.422;2022-07-24T03:47:22;18.60;;;16.73;;
14484;SDS011;7328;50.812;4.422;2022-07-24T03:49:48;20.87;;;17.23;;
14484;SDS011;7328;50.812;4.422;2022-07-24T03:52:14;21.47;;;17.53;;
14484;SDS011;7328;50.812;4.422;2022-07-24T03:54:39;17.43;;;15.90;;
14484;SDS011;7328;50.812;4.422;2022-07-24T03:57:05;19.27;;;17.30;;
14484;SDS011;7328;50.812;4.422;2022-07-24T03:59:31;17.87;;;15.93;;
14484;SDS011;7328;50.812;4.422;2022-07-24T04:01:57;16.23;;;14.57;;
14484;SDS011;7328;50.812;4.422;2022-07-24T04:04:23;15.63;;;14.33;;
14484;SDS011;7328;50.812;4.422;2022-07-24T04:06:49;17.10;;;15.40;;
14484;SDS011;7328;50.812;4.422;2022-07-24T04:09:15;19.93;;;15.23;;
14484;SDS011;7328;50.812;4.422;2022-07-24T04:11:41;22.20;;;16.77;;
14484;SDS011;7328;50.812;4.422;2022-07-24T04:14:09;18.03;;;15.00;;
14484;SDS011;7328;50.812;4.422;2022-07-24T04:16:36;16.70;;;15.00;;
14484;SDS011;7328;50.812;4.422;2022-07-24T04:19:02;17.87;;;16.00;;
14484;SDS011;7328;50.812;4.422;2022-07-24T04:21:28;19.67;;;14.90;;
14484;SDS011;7328;50.812;4.422;2022-07-24T04:23:54;16.53;;;15.17;;
14484;SDS011;7328;50.812;4.422;2022-07-24T04:26:20;18.00;;;14.93;;
14484;SDS011;7328;50.812;4.422;2022-07-24T04:28:46;18.60;;;16.20;;
14484;SDS011;7328;50.812;4.422;2022-07-24T04:31:12;17.10;;;14.53;;
14484;SDS011;7328;50.812;4.422;2022-07-24T04:33:37;17.57;;;15.73;;
14484;SDS011;7328;50.812;4.422;2022-07-24T04:36:04;16.47;;;14.77;;
14484;SDS011;7328;50.812;4.422;2022-07-24T04:38:34;15.63;;;14.07;;
14484;SDS011;7328;50.812;4.422;2022-07-24T04:40:59;13.77;;;12.40;;
14484;SDS011;7328;50.812;4.422;2022-07-24T04:43:25;15.50;;;14.03;;
14484;SDS011;7328;50.812;4.422;2022-07-24T04:45:51;15.30;;;14.03;;
14484;SDS011;7328;50.812;4.422;2022-07-24T04:48:17;16.30;;;13.50;;
14484;SDS011;7328;50.812;4.422;2022-07-24T04:50:43;14.50;;;13.10;;
14484;SDS011;7328;50.812;4.422;2022-07-24T04:53:09;14.87;;;13.27;;
14484;SDS011;7328;50.812;4.422;2022-07-24T04:55:34;14.40;;;13.00;;
14484;SDS011;7328;50.812;4.422;2022-07-24T04:58:00;15.87;;;13.30;;
14484;SDS011;7328;50.812;4.422;2022-07-24T05:00:26;13.07;;;11.90;;
14484;SDS011;7328;50.812;4.422;2022-07-24T05:02:51;16.70;;;13.90;;
14484;SDS011;7328;50.812;4.422;2022-07-24T05:05:17;13.37;;;12.13;;
14484;SDS011;7328;50.812;4.422;2022-07-24T05:07:43;14.07;;;12.70;;
14484;SDS011;7328;50.812;4.422;2022-07-24T05:10:08;16.80;;;13.80;;
14484;SDS011;7328;50.812;4.422;2022-07-24T05:12:34;16.23;;;11.47;;
14484;SDS011;7328;50.812;4.422;2022-07-24T05:15:00;12.20;;;11.00;;
14484;SDS011;7328;50.812;4.422;2022-07-24T05:17:26;12.30;;;11.17;;
14484;SDS011;7328;50.812;4.422;2022-07-24T05:19:51;14.90;;;12.10;;
14484;SDS011;7328;50.812;4.422;2022-07-24T05:22:17;14.07;;;11.07;;
14484;SDS011;7328;50.812;4.422;2022-07-24T05:24:43;12.07;;;10.93;;
14484;SDS011;7328;50.812;4.422;2022-07-24T05:27:09;11.73;;;10.53;;
14484;SDS011;7328;50.812;4.422;2022-07-24T05:29:34;12.77;;;11.00;;
14484;SDS011;7328;50.812;4.422;2022-07-24T05:32:00;11.43;;;10.43;;
14484;SDS011;7328;50.812;4.422;2022-07-24T05:34:26;12.07;;;10.67;;
14484;SDS011;7328;50.812;4.422;2022-07-24T05:36:52;14.43;;;10.93;;
14484;SDS011;7328;50.812;4.422;2022-07-24T05:39:17;12.13;;;9.03;;
14484;SDS011;7328;50.812;4.422;2022-07-24T05:41:43;12.03;;;10.87;;
14484;SDS011;7328;50.812;4.422;2022-07-24T05:44:09;9.33;;;8.43;;
14484;SDS011;7328;50.812;4.422;2022-07-24T05:46:34;11.90;;;10.70;;
14484;SDS011;7328;50.812;4.422;2022-07-24T05:49:00;8.93;;;8.03;;
14484;SDS011;7328;50.812;4.422;2022-07-24T05:51:26;12.53;;;11.33;;
14484;SDS011;7328;50.812;4.422;2022-07-24T05:53:52;11.17;;;9.47;;
14484;SDS011;7328;50.812;4.422;2022-07-24T05:56:18;10.83;;;8.73;;
14484;SDS011;7328;50.812;4.422;2022-07-24T05:58:43;8.53;;;7.83;;
14484;SDS011;7328;50.812;4.422;2022-07-24T06:01:09;7.70;;;7.10;;
14484;SDS011;7328;50.812;4.422;2022-07-24T06:03:35;7.57;;;6.83;;
14484;SDS011;7328;50.812;4.422;2022-07-24T06:06:04;8.27;;;7.40;;
14484;SDS011;7328;50.812;4.422;2022-07-24T06:08:30;8.63;;;6.90;;
14484;SDS011;7328;50.812;4.422;2022-07-24T06:10:56;8.43;;;7.60;;
14484;SDS011;7328;50.812;4.422;2022-07-24T06:13:22;14.03;;;6.80;;
14484;SDS011;7328;50.812;4.422;2022-07-24T06:15:48;14.97;;;8.60;;
14484;SDS011;7328;50.812;4.422;2022-07-24T06:18:13;7.50;;;6.80;;
14484;SDS011;7328;50.812;4.422;2022-07-24T06:20:39;8.50;;;7.70;;
14484;SDS011;7328;50.812;4.422;2022-07-24T06:23:05;8.67;;;7.77;;
14484;SDS011;7328;50.812;4.422;2022-07-24T06:25:31;13.23;;;8.47;;
14484;SDS011;7328;50.812;4.422;2022-07-24T06:27:57;11.13;;;7.57;;
14484;SDS011;7328;50.812;4.422;2022-07-24T06:30:24;9.00;;;8.07;;
14484;SDS011;7328;50.812;4.422;2022-07-24T06:32:54;11.07;;;8.63;;
14484;SDS011;7328;50.812;4.422;2022-07-24T06:35:21;9.67;;;8.63;;
14484;SDS011;7328;50.812;4.422;2022-07-24T06:37:47;12.37;;;8.87;;
14484;SDS011;7328;50.812;4.422;2022-07-24T06:40:14;8.77;;;7.97;;
14484;SDS011;7328;50.812;4.422;2022-07-24T06:42:41;12.93;;;8.33;;
14484;SDS011;7328;50.812;4.422;2022-07-24T06:45:07;9.07;;;8.20;;
14484;SDS011;7328;50.812;4.422;2022-07-24T06:47:34;11.00;;;9.00;;
14484;SDS011;7328;50.812;4.422;2022-07-24T06:50:00;12.80;;;10.37;;
14484;SDS011;7328;50.812;4.422;2022-07-24T06:52:26;17.50;;;12.97;;
14484;SDS011;7328;50.812;4.422;2022-07-24T06:54:52;15.20;;;10.77;;
14484;SDS011;7328;50.812;4.422;2022-07-24T06:57:19;11.63;;;8.97;;
14484;SDS011;7328;50.812;4.422;2022-07-24T06:59:45;10.87;;;8.67;;
14484;SDS011;7328;50.812;4.422;2022-07-24T07:02:10;11.53;;;8.93;;
14484;SDS011;7328;50.812;4.422;2022-07-24T07:04:36;9.83;;;8.53;;
14484;SDS011;7328;50.812;4.422;2022-07-24T07:07:02;12.60;;;9.07;;
14484;SDS011;7328;50.812;4.422;2022-07-24T07:09:29;9.90;;;8.60;;
14484;SDS011;7328;50.812;4.422;2022-07-24T07:11:55;8.47;;;7.63;;
14484;SDS011;7328;50.812;4.422;2022-07-24T07:14:21;11.40;;;9.50;;
14484;SDS011;7328;50.812;4.422;2022-07-24T07:16:47;11.67;;;8.07;;
14484;SDS011;7328;50.812;4.422;2022-07-24T07:19:13;10.30;;;7.00;;
14484;SDS011;7328;50.812;4.422;2022-07-24T07:21:39;8.67;;;6.80;;
14484;SDS011;7328;50.812;4.422;2022-07-24T07:24:05;8.10;;;5.77;;
14484;SDS011;7328;50.812;4.422;2022-07-24T07:26:31;6.10;;;5.40;;
14484;SDS011;7328;50.812;4.422;2022-07-24T07:28:58;6.17;;;5.57;;
14484;SDS011;7328;50.812;4.422;2022-07-24T07:31:24;5.30;;;4.80;;
14484;SDS011;7328;50.812;4.422;2022-07-24T07:33:51;4.83;;;4.43;;
14484;SDS011;7328;50.812;4.422;2022-07-24T07:36:18;6.23;;;4.97;;
14484;SDS011;7328;50.812;4.422;2022-07-24T07:38:45;4.90;;;4.40;;
14484;SDS011;7328;50.812;4.422;2022-07-24T07:41:14;3.97;;;3.67;;
14484;SDS011;7328;50.812;4.422;2022-07-24T07:43:40;4.43;;;3.27;;
14484;SDS011;7328;50.812;4.422;2022-07-24T07:46:06;3.97;;;2.93;;
14484;SDS011;7328;50.812;4.422;2022-07-24T07:48:33;3.27;;;2.57;;
14484;SDS011;7328;50.812;4.422;2022-07-24T07:50:59;4.00;;;2.50;;
14484;SDS011;7328;50.812;4.422;2022-07-24T07:53:25;4.77;;;3.67;;
14484;SDS011;7328;50.812;4.422;2022-07-24T07:55:50;2.50;;;2.30;;
14484;SDS011;7328;50.812;4.422;2022-07-24T07:58:18;3.60;;;3.30;;
14484;SDS011;7328;50.812;4.422;2022-07-24T08:00:44;5.77;;;3.37;;
14484;SDS011;7328;50.812;4.422;2022-07-24T08:03:10;2.50;;;2.30;;
14484;SDS011;7328;50.812;4.422;2022-07-24T08:05:36;3.27;;;2.70;;
14484;SDS011;7328;50.812;4.422;2022-07-24T08:08:02;5.03;;;3.40;;
14484;SDS011;7328;50.812;4.422;2022-07-24T08:10:28;2.77;;;2.13;;
14484;SDS011;7328;50.812;4.422;2022-07-24T08:12:54;2.83;;;2.63;;
14484;SDS011;7328;50.812;4.422;2022-07-24T08:15:19;1.77;;;1.70;;
14484;SDS011;7328;50.812;4.422;2022-07-24T08:17:47;2.33;;;2.17;;
14484;SDS011;7328;50.812;4.422;2022-07-24T08:20:17;2.50;;;2.27;;
14484;SDS011;7328;50.812;4.422;2022-07-24T08:22:43;3.33;;;1.80;;
14484;SDS011;7328;50.812;4.422;2022-07-24T08:25:09;3.90;;;2.93;;
14484;SDS011;7328;50.812;4.422;2022-07-24T08:27:35;3.53;;;2.20;;
14484;SDS011;7328;50.812;4.422;2022-07-24T08:30:02;2.33;;;2.13;;
14484;SDS011;7328;50.812;4.422;2022-07-24T08:32:28;2.40;;;2.30;;
14484;SDS011;7328;50.812;4.422;2022-07-24T08:34:54;3.70;;;1.83;;
14484;SDS011;7328;50.812;4.422;2022-07-24T08:37:20;2.50;;;2.30;;
14484;SDS011;7328;50.812;4.422;2022-07-24T08:39:46;2.53;;;1.83;;
14484;SDS011;7328;50.812;4.422;2022-07-24T08:42:12;4.07;;;1.87;;
14484;SDS011;7328;50.812;4.422;2022-07-24T08:44:38;2.80;;;1.87;;
14484;SDS011;7328;50.812;4.422;2022-07-24T08:47:06;3.10;;;2.80;;
14484;SDS011;7328;50.812;4.422;2022-07-24T08:49:35;3.17;;;2.63;;
14484;SDS011;7328;50.812;4.422;2022-07-24T08:52:03;4.17;;;3.23;;
14484;SDS011;7328;50.812;4.422;2022-07-24T08:54:33;2.23;;;2.10;;
14484;SDS011;7328;50.812;4.422;2022-07-24T08:57:00;1.57;;;1.47;;
14484;SDS011;7328;50.812;4.422;2022-07-24T08:59:26;1.60;;;1.50;;
14484;SDS011;7328;50.812;4.422;2022-07-24T09:01:52;3.00;;;1.57;;
14484;SDS011;7328;50.812;4.422;2022-07-24T09:07:08;1.87;;;1.77;;
14484;SDS011;7328;50.812;4.422;2022-07-24T09:09:34;1.63;;;1.53;;
14484;SDS011;7328;50.812;4.422;2022-07-24T09:14:41;2.50;;;2.30;;
14484;SDS011;7328;50.812;4.422;2022-07-24T09:17:12;2.20;;;1.87;;
14484;SDS011;7328;50.812;4.422;2022-07-24T09:22:17;1.50;;;1.40;;
14484;SDS011;7328;50.812;4.422;2022-07-24T09:25:05;3.73;;;2.27;;
14484;SDS011;7328;50.812;4.422;2022-07-24T09:27:59;2.40;;;1.90;;
14484;SDS011;7328;50.812;4.422;2022-07-24T09:30:33;1.77;;;1.67;;
14484;SDS011;7328;50.812;4.422;2022-07-24T09:33:03;1.70;;;1.60;;
14484;SDS011;7328;50.812;4.422;2022-07-24T09:35:39;2.07;;;1.97;;
14484;SDS011;7328;50.812;4.422;2022-07-24T09:38:08;1.90;;;1.80;;
14484;SDS011;7328;50.812;4.422;2022-07-24T09:40:39;1.93;;;1.83;;
14484;SDS011;7328;50.812;4.422;2022-07-24T09:43:17;2.07;;;1.87;;
14484;SDS011;7328;50.812;4.422;2022-07-24T09:51:04;2.67;;;1.53;;
14484;SDS011;7328;50.812;4.422;2022-07-24T09:53:35;1.50;;;1.40;;
14484;SDS011;7328;50.812;4.422;2022-07-24T09:56:03;1.70;;;1.60;;
14484;SDS011;7328;50.812;4.422;2022-07-24T09:58:37;2.07;;;1.30;;
14484;SDS011;7328;50.812;4.422;2022-07-24T10:01:06;4.70;;;2.00;;
14484;SDS011;7328;50.812;4.422;2022-07-24T10:03:35;1.67;;;1.57;;
14484;SDS011;7328;50.812;4.422;2022-07-24T10:06:08;2.63;;;1.53;;
14484;SDS011;7328;50.812;4.422;2022-07-24T10:08:37;1.87;;;1.50;;
14484;SDS011;7328;50.812;4.422;2022-07-24T10:11:05;3.37;;;2.03;;
14484;SDS011;7328;50.812;4.422;2022-07-24T10:13:32;1.20;;;1.20;;
14484;SDS011;7328;50.812;4.422;2022-07-24T10:21:08;2.20;;;1.90;;
14484;SDS011;7328;50.812;4.422;2022-07-24T10:23:57;3.77;;;3.40;;
14484;SDS011;7328;50.812;4.422;2022-07-24T10:29:05;3.67;;;3.47;;
14484;SDS011;7328;50.812;4.422;2022-07-24T10:31:45;2.00;;;1.90;;
14484;SDS011;7328;50.812;4.422;2022-07-24T10:39:45;2.30;;;2.20;;
14484;SDS011;7328;50.812;4.422;2022-07-24T10:42:13;1.93;;;1.67;;
14484;SDS011;7328;50.812;4.422;2022-07-24T10:44:38;2.70;;;2.30;;
14484;SDS011;7328;50.812;4.422;2022-07-24T10:47:06;4.03;;;2.30;;
14484;SDS011;7328;50.812;4.422;2022-07-24T10:49:34;2.77;;;2.60;;
14484;SDS011;7328;50.812;4.422;2022-07-24T10:52:01;2.00;;;1.60;;
14484;SDS011;7328;50.812;4.422;2022-07-24T10:54:29;2.03;;;1.93;;
14484;SDS011;7328;50.812;4.422;2022-07-24T10:56:54;2.23;;;1.70;;
14484;SDS011;7328;50.812;4.422;2022-07-24T11:02:22;4.53;;;2.20;;
14484;SDS011;7328;50.812;4.422;2022-07-24T11:05:35;1.67;;;1.30;;
14484;SDS011;7328;50.812;4.422;2022-07-24T11:10:44;2.53;;;2.00;;
14484;SDS011;7328;50.812;4.422;2022-07-24T11:16:12;1.83;;;1.70;;
14484;SDS011;7328;50.812;4.422;2022-07-24T11:21:26;5.37;;;1.80;;
14484;SDS011;7328;50.812;4.422;2022-07-24T11:29:19;2.23;;;2.00;;
14484;SDS011;7328;50.812;4.422;2022-07-24T11:32:11;1.90;;;1.73;;
14484;SDS011;7328;50.812;4.422;2022-07-24T11:34:36;3.00;;;2.70;;
14484;SDS011;7328;50.812;4.422;2022-07-24T11:37:03;2.20;;;2.10;;
14484;SDS011;7328;50.812;4.422;2022-07-24T11:39:35;3.27;;;3.03;;
14484;SDS011;7328;50.812;4.422;2022-07-24T11:42:03;2.60;;;2.40;;
14484;SDS011;7328;50.812;4.422;2022-07-24T11:44:34;2.40;;;2.20;;
14484;SDS011;7328;50.812;4.422;2022-07-24T11:47:06;2.97;;;2.83;;
14484;SDS011;7328;50.812;4.422;2022-07-24T11:49:46;3.90;;;3.03;;
14484;SDS011;7328;50.812;4.422;2022-07-24T11:52:16;3.47;;;2.53;;
14484;SDS011;7328;50.812;4.422;2022-07-24T11:54:45;2.77;;;2.57;;
14484;SDS011;7328;50.812;4.422;2022-07-24T11:57:22;2.57;;;2.37;;
14484;SDS011;7328;50.812;4.422;2022-07-24T11:59:52;2.50;;;2.30;;
14484;SDS011;7328;50.812;4.422;2022-07-24T12:02:23;5.68;;;3.25;;
14484;SDS011;7328;50.812;4.422;2022-07-24T12:04:50;3.28;;;3.00;;
14484;SDS011;7328;50.812;4.422;2022-07-24T12:07:17;3.58;;;2.42;;
14484;SDS011;7328;50.812;4.422;2022-07-24T12:12:20;5.50;;;5.10;;
14484;SDS011;7328;50.812;4.422;2022-07-24T12:14:47;6.05;;;4.32;;
14484;SDS011;7328;50.812;4.422;2022-07-24T12:17:13;3.47;;;3.28;;
14484;SDS011;7328;50.812;4.422;2022-07-24T12:19:39;2.90;;;2.70;;
14484;SDS011;7328;50.812;4.422;2022-07-24T12:22:14;5.93;;;5.43;;
14484;SDS011;7328;50.812;4.422;2022-07-24T12:24:40;6.22;;;5.72;;
14484;SDS011;7328;50.812;4.422;2022-07-24T12:27:06;3.00;;;2.80;;
14484;SDS011;7328;50.812;4.422;2022-07-24T12:29:32;3.53;;;2.97;;
14484;SDS011;7328;50.812;4.422;2022-07-24T12:32:17;5.78;;;5.38;;
14484;SDS011;7328;50.812;4.422;2022-07-24T12:34:44;4.13;;;3.10;;
14484;SDS011;7328;50.812;4.422;2022-07-24T12:37:15;2.83;;;2.63;;
14484;SDS011;7328;50.812;4.422;2022-07-24T12:39:48;2.58;;;2.38;;
14484;SDS011;7328;50.812;4.422;2022-07-24T12:42:16;2.92;;;2.67;;
14484;SDS011;7328;50.812;4.422;2022-07-24T12:44:43;2.33;;;2.22;;
14484;SDS011;7328;50.812;4.422;2022-07-24T12:47:13;3.70;;;2.30;;
14484;SDS011;7328;50.812;4.422;2022-07-24T12:49:43;3.40;;;2.20;;
14484;SDS011;7328;50.812;4.422;2022-07-24T12:52:20;2.40;;;2.28;;
14484;SDS011;7328;50.812;4.422;2022-07-24T12:54:49;2.13;;;2.00;;
14484;SDS011;7328;50.812;4.422;2022-07-24T12:57:15;2.63;;;2.42;;
14484;SDS011;7328;50.812;4.422;2022-07-24T12:59:42;2.38;;;2.17;;
14484;SDS011;7328;50.812;4.422;2022-07-24T13:02:10;2.53;;;2.42;;
14484;SDS011;7328;50.812;4.422;2022-07-24T13:04:43;2.53;;;2.30;;
14484;SDS011;7328;50.812;4.422;2022-07-24T13:07:10;4.40;;;2.65;;
14484;SDS011;7328;50.812;4.422;2022-07-24T13:09:36;2.60;;;2.50;;
14484;SDS011;7328;50.812;4.422;2022-07-24T13:12:03;2.40;;;2.30;;
14484;SDS011;7328;50.812;4.422;2022-07-24T13:14:30;2.45;;;2.30;;
14484;SDS011;7328;50.812;4.422;2022-07-24T13:17:01;5.47;;;2.80;;
14484;SDS011;7328;50.812;4.422;2022-07-24T13:19:34;2.85;;;2.03;;
14484;SDS011;7328;50.812;4.422;2022-07-24T13:22:04;1.98;;;1.88;;
14484;SDS011;7328;50.812;4.422;2022-07-24T13:24:30;2.35;;;2.25;;
14484;SDS011;7328;50.812;4.422;2022-07-24T13:26:57;2.78;;;2.53;;
14484;SDS011;7328;50.812;4.422;2022-07-24T13:29:24;2.38;;;2.28;;
14484;SDS011;7328;50.812;4.422;2022-07-24T13:31:51;2.38;;;2.28;;
14484;SDS011;7328;50.812;4.422;2022-07-24T13:34:17;3.15;;;2.45;;
14484;SDS011;7328;50.812;4.422;2022-07-24T13:36:43;3.53;;;3.33;;
14484;SDS011;7328;50.812;4.422;2022-07-24T13:39:09;3.03;;;2.85;;
14484;SDS011;7328;50.812;4.422;2022-07-24T13:41:35;2.97;;;2.63;;
14484;SDS011;7328;50.812;4.422;2022-07-24T13:44:02;2.88;;;2.67;;
14484;SDS011;7328;50.812;4.422;2022-07-24T13:46:31;2.67;;;2.58;;
14484;SDS011;7328;50.812;4.422;2022-07-24T13:48:59;3.47;;;3.17;;
14484;SDS011;7328;50.812;4.422;2022-07-24T13:51:26;3.47;;;3.28;;
14484;SDS011;7328;50.812;4.422;2022-07-24T13:53:52;3.67;;;3.15;;
14484;SDS011;7328;50.812;4.422;2022-07-24T13:56:18;3.63;;;3.42;;
14484;SDS011;7328;50.812;4.422;2022-07-24T13:58:43;2.83;;;2.70;;
14484;SDS011;7328;50.812;4.422;2022-07-24T14:01:10;2.65;;;2.55;;
14484;SDS011;7328;50.812;4.422;2022-07-24T14:03:37;2.90;;;2.70;;
14484;SDS011;7328;50.812;4.422;2022-07-24T14:06:07;3.15;;;2.38;;
14484;SDS011;7328;50.812;4.422;2022-07-24T14:08:34;2.75;;;2.55;;
14484;SDS011;7328;50.812;4.422;2022-07-24T14:10:59;3.45;;;3.25;;
14484;SDS011;7328;50.812;4.422;2022-07-24T14:13:25;2.95;;;2.75;;
14484;SDS011;7328;50.812;4.422;2022-07-24T14:15:51;2.45;;;2.25;;
14484;SDS011;7328;50.812;4.422;2022-07-24T14:18:17;3.75;;;2.78;;
14484;SDS011;7328;50.812;4.422;2022-07-24T14:20:43;2.90;;;2.60;;
14484;SDS011;7328;50.812;4.422;2022-07-24T14:23:08;2.70;;;2.50;;
14484;SDS011;7328;50.812;4.422;2022-07-24T14:25:34;7.45;;;2.47;;
14484;SDS011;7328;50.812;4.422;2022-07-24T14:28:00;2.50;;;2.40;;
14484;SDS011;7328;50.812;4.422;2022-07-24T14:30:26;3.03;;;2.92;;
14484;SDS011;7328;50.812;4.422;2022-07-24T14:32:52;3.45;;;2.53;;
14484;SDS011;7328;50.812;4.422;2022-07-24T14:35:17;3.63;;;2.47;;
14484;SDS011;7328;50.812;4.422;2022-07-24T14:37:43;3.35;;;2.92;;
14484;SDS011;7328;50.812;4.422;2022-07-24T14:40:09;4.38;;;3.33;;
14484;SDS011;7328;50.812;4.422;2022-07-24T14:42:35;3.15;;;2.83;;
14484;SDS011;7328;50.812;4.422;2022-07-24T14:45:02;2.83;;;2.70;;
14484;SDS011;7328;50.812;4.422;2022-07-24T14:47:28;3.05;;;2.95;;
14484;SDS011;7328;50.812;4.422;2022-07-24T14:49:54;3.60;;;3.30;;
14484;SDS011;7328;50.812;4.422;2022-07-24T14:52:20;4.35;;;3.95;;
14484;SDS011;7328;50.812;4.422;2022-07-24T14:54:47;3.88;;;3.78;;
14484;SDS011;7328;50.812;4.422;2022-07-24T14:57:14;4.10;;;3.90;;
14484;SDS011;7328;50.812;4.422;2022-07-24T14:59:41;3.85;;;3.65;;
14484;SDS011;7328;50.812;4.422;2022-07-24T15:02:07;4.38;;;4.10;;
14484;SDS011;7328;50.812;4.422;2022-07-24T15:04:34;4.65;;;4.30;;
14484;SDS011;7328;50.812;4.422;2022-07-24T15:07:01;5.32;;;4.57;;
14484;SDS011;7328;50.812;4.422;2022-07-24T15:09:27;4.53;;;4.32;;
14484;SDS011;7328;50.812;4.422;2022-07-24T15:11:53;4.35;;;4.15;;
14484;SDS011;7328;50.812;4.422;2022-07-24T15:14:20;4.35;;;4.10;;
14484;SDS011;7328;50.812;4.422;2022-07-24T15:16:46;4.32;;;4.13;;
14484;SDS011;7328;50.812;4.422;2022-07-24T15:19:12;6.05;;;5.30;;
14484;SDS011;7328;50.812;4.422;2022-07-24T15:21:38;4.05;;;3.85;;
14484;SDS011;7328;50.812;4.422;2022-07-24T15:24:04;4.70;;;4.30;;
14484;SDS011;7328;50.812;4.422;2022-07-24T15:26:33;4.70;;;4.40;;
14484;SDS011;7328;50.812;4.422;2022-07-24T15:28:59;5.18;;;4.88;;
14484;SDS011;7328;50.812;4.422;2022-07-24T15:31:25;4.35;;;4.13;;
14484;SDS011;7328;50.812;4.422;2022-07-24T15:33:51;4.68;;;4.47;;
14484;SDS011;7328;50.812;4.422;2022-07-24T15:36:16;4.35;;;4.15;;